createdAt,value
2022-11-24T00:00:31.759Z,3.00
2022-11-24T00:02:58.397Z,2.90
2022-11-24T00:05:25.461Z,3.05
2022-11-24T00:07:52.500Z,3.17
2022-11-24T00:10:19.350Z,3.10
2022-11-24T00:12:45.862Z,3.28
2022-11-24T00:15:13.140Z,3.70
2022-11-24T00:17:39.980Z,3.38
2022-11-24T00:20:07.051Z,2.83
2022-11-24T00:22:34.247Z,3.83
2022-11-24T00:25:01.019Z,3.28
2022-11-24T00:27:28.082Z,3.60
2022-11-24T00:29:54.724Z,3.00
2022-11-24T00:32:21.248Z,3.88
2022-11-24T00:34:48.415Z,2.80
2022-11-24T00:37:15.143Z,3.00
2022-11-24T00:39:41.898Z,2.95
2022-11-24T00:42:08.558Z,3.28
2022-11-24T00:44:35.503Z,3.00
2022-11-24T00:47:02.208Z,3.45
2022-11-24T00:49:29.021Z,3.05
2022-11-24T00:51:55.486Z,3.05
2022-11-24T00:54:22.212Z,3.13
2022-11-24T00:56:49.608Z,3.65
2022-11-24T00:59:16.160Z,2.85
2022-11-24T01:01:42.922Z,3.42
2022-11-24T01:04:09.746Z,2.95
2022-11-24T01:06:36.767Z,2.90
2022-11-24T01:09:04.262Z,3.00
2022-11-24T01:11:53.065Z,3.63
2022-11-24T01:14:21.066Z,3.30
2022-11-24T01:16:48.367Z,3.58
2022-11-24T01:19:15.395Z,3.22
2022-11-24T01:21:41.998Z,3.75
2022-11-24T01:24:10.586Z,3.22
2022-11-24T01:26:38.462Z,2.60
2022-11-24T01:29:05.506Z,3.22
2022-11-24T01:31:32.761Z,3.13
2022-11-24T01:33:59.916Z,3.30
2022-11-24T01:36:26.406Z,3.22
2022-11-24T01:38:53.120Z,2.80
2022-11-24T01:41:22.578Z,3.00
2022-11-24T01:43:50.529Z,2.85
2022-11-24T01:46:28.884Z,2.58
2022-11-24T01:49:04.635Z,3.33
2022-11-24T01:51:35.033Z,3.17
2022-11-24T01:54:31.212Z,3.55
2022-11-24T01:57:24.571Z,2.70
2022-11-24T02:00:14.457Z,3.58
2022-11-24T02:03:01.096Z,3.17
2022-11-24T02:05:55.567Z,3.08
2022-11-24T02:09:03.654Z,3.30
2022-11-24T02:11:35.586Z,3.28
2022-11-24T02:14:05.240Z,3.20
2022-11-24T02:16:35.798Z,2.83
2022-11-24T02:19:18.209Z,3.45
2022-11-24T02:21:44.740Z,3.63
2022-11-24T02:24:25.406Z,3.38
2022-11-24T02:26:52.335Z,3.00
2022-11-24T02:29:22.454Z,3.13
2022-11-24T02:31:55.254Z,2.67
2022-11-24T02:34:22.136Z,3.30
2022-11-24T02:36:48.984Z,3.20
2022-11-24T02:39:16.379Z,2.90
2022-11-24T02:41:49.225Z,2.95
2022-11-24T02:44:19.937Z,3.10
2022-11-24T02:46:46.475Z,3.25
2022-11-24T02:49:13.302Z,3.25
2022-11-24T02:51:40.045Z,3.53
2022-11-24T02:54:06.782Z,2.65
2022-11-24T02:56:33.527Z,3.92
2022-11-24T02:59:00.251Z,3.47
2022-11-24T03:01:26.895Z,2.97
2022-11-24T03:03:53.405Z,2.70
2022-11-24T03:06:20.204Z,3.50
2022-11-24T03:08:47.062Z,4.22
2022-11-24T03:11:13.582Z,3.40
2022-11-24T03:13:40.286Z,3.22
2022-11-24T03:16:09.104Z,3.58
2022-11-24T03:18:36.128Z,3.78
2022-11-24T03:21:02.614Z,3.38
2022-11-24T03:23:29.467Z,3.08
2022-11-24T03:26:10.128Z,2.97
2022-11-24T03:28:37.268Z,3.58
2022-11-24T03:31:04.063Z,3.53
2022-11-24T03:33:30.935Z,3.50
2022-11-24T03:35:57.528Z,4.32
2022-11-24T03:38:24.330Z,3.03
2022-11-24T03:40:51.635Z,4.60
2022-11-24T03:43:18.133Z,3.70
2022-11-24T03:45:49.228Z,3.30
2022-11-24T03:48:17.416Z,3.40
2022-11-24T03:50:52.234Z,3.25
2022-11-24T03:53:18.726Z,3.13
2022-11-24T03:55:45.429Z,4.55
2022-11-24T03:58:12.288Z,3.80
2022-11-24T04:00:39.778Z,2.90
2022-11-24T04:03:06.585Z,4.22
2022-11-24T04:05:35.900Z,4.40
2022-11-24T04:08:05.955Z,3.78
2022-11-24T04:10:36.032Z,3.30
2022-11-24T04:13:04.713Z,3.78
2022-11-24T04:15:31.146Z,2.72
2022-11-24T04:17:58.149Z,2.95
2022-11-24T04:20:24.830Z,3.72
2022-11-24T04:22:54.589Z,4.30
2022-11-24T04:25:21.009Z,3.75
2022-11-24T04:27:52.357Z,3.58
2022-11-24T04:30:19.870Z,3.60
2022-11-24T04:32:46.878Z,4.90
2022-11-24T04:35:13.993Z,3.33
2022-11-24T04:37:40.703Z,4.18
2022-11-24T04:40:09.628Z,2.90
2022-11-24T04:42:36.509Z,3.80
2022-11-24T04:45:04.465Z,3.90
2022-11-24T04:47:30.876Z,3.60
2022-11-24T04:49:57.963Z,3.83
2022-11-24T04:52:25.873Z,3.63
2022-11-24T04:54:52.882Z,3.63
2022-11-24T04:57:22.346Z,3.67
2022-11-24T04:59:50.570Z,3.55
2022-11-24T05:02:17.699Z,3.10
2022-11-24T05:04:44.768Z,3.42
2022-11-24T05:07:18.028Z,3.58
2022-11-24T05:10:05.857Z,4.10
2022-11-24T05:12:32.619Z,3.97
2022-11-24T05:15:00.493Z,4.88
2022-11-24T05:17:31.938Z,3.30
2022-11-24T05:19:59.162Z,3.80
2022-11-24T05:22:25.971Z,3.10
2022-11-24T05:24:52.962Z,3.58
2022-11-24T05:27:19.508Z,4.07
2022-11-24T05:29:46.239Z,4.13
2022-11-24T05:32:12.905Z,3.53
2022-11-24T05:34:39.840Z,4.20
2022-11-24T05:37:07.048Z,3.80
2022-11-24T05:39:35.538Z,3.45
2022-11-24T05:42:23.982Z,4.18
2022-11-24T05:44:50.691Z,3.85
2022-11-24T05:47:17.412Z,4.03
2022-11-24T05:49:44.986Z,4.30
2022-11-24T05:52:12.193Z,4.10
2022-11-24T05:54:39.058Z,3.97
2022-11-24T05:57:05.592Z,4.18
2022-11-24T05:59:32.238Z,4.03
2022-11-24T06:01:59.123Z,3.50
2022-11-24T06:04:25.886Z,4.50
2022-11-24T06:06:52.651Z,5.00
2022-11-24T06:09:19.121Z,3.58
2022-11-24T06:11:47.388Z,3.92
2022-11-24T06:14:14.405Z,3.97
2022-11-24T06:16:41.533Z,4.20
2022-11-24T06:19:11.933Z,3.50
2022-11-24T06:21:38.469Z,3.95
2022-11-24T06:24:05.484Z,3.97
2022-11-24T06:26:32.428Z,4.18
2022-11-24T06:28:58.943Z,4.35
2022-11-24T06:31:25.619Z,4.13
2022-11-24T06:33:52.131Z,4.63
2022-11-24T06:36:19.045Z,4.18
2022-11-24T06:38:45.980Z,5.28
2022-11-24T06:41:14.530Z,4.47
2022-11-24T06:43:41.247Z,4.78
2022-11-24T06:46:08.242Z,3.78
2022-11-24T06:48:34.963Z,3.67
2022-11-24T06:51:03.880Z,4.15
2022-11-24T06:53:38.194Z,4.50
2022-11-24T06:56:15.727Z,3.95
2022-11-24T06:58:49.586Z,4.13
2022-11-24T07:01:25.199Z,4.35
2022-11-24T07:03:53.240Z,3.55
2022-11-24T07:06:20.835Z,3.90
2022-11-24T07:08:47.842Z,4.10
2022-11-24T07:11:16.788Z,5.68
2022-11-24T07:13:44.228Z,5.75
2022-11-24T07:16:25.268Z,4.03
2022-11-24T07:18:52.974Z,4.00
2022-11-24T07:21:21.210Z,4.05
2022-11-24T07:23:51.875Z,4.40
2022-11-24T07:26:18.782Z,5.55
2022-11-24T07:28:46.345Z,4.28
2022-11-24T07:31:15.759Z,5.25
2022-11-24T07:33:42.565Z,4.05
2022-11-24T07:36:09.603Z,4.53
2022-11-24T07:38:36.262Z,4.65
2022-11-24T07:41:08.722Z,4.32
2022-11-24T07:43:36.662Z,4.22
2022-11-24T07:46:05.797Z,4.88
2022-11-24T07:48:32.289Z,4.15
2022-11-24T07:51:00.253Z,4.50
2022-11-24T07:53:27.286Z,4.38
2022-11-24T07:55:55.596Z,3.38
2022-11-24T07:58:22.831Z,4.05
2022-11-24T08:00:49.501Z,3.63
2022-11-24T08:03:16.204Z,4.18
2022-11-24T08:06:07.711Z,4.45
2022-11-24T08:08:33.186Z,3.97
2022-11-24T08:11:05.960Z,3.97
2022-11-24T08:13:32.510Z,4.15
2022-11-24T08:15:59.178Z,4.03
2022-11-24T08:18:25.802Z,4.50
2022-11-24T08:20:52.577Z,3.72
2022-11-24T08:23:18.975Z,3.70
2022-11-24T08:25:45.438Z,4.30
2022-11-24T08:28:11.925Z,4.32
2022-11-24T08:30:38.412Z,4.80
2022-11-24T08:33:05.248Z,4.25
2022-11-24T08:35:31.675Z,3.72
2022-11-24T08:38:03.190Z,3.47
2022-11-24T08:40:31.438Z,4.05
2022-11-24T08:42:59.493Z,4.88
2022-11-24T08:45:29.484Z,4.93
2022-11-24T08:47:58.068Z,4.65
2022-11-24T08:50:25.483Z,4.72
2022-11-24T08:52:56.169Z,4.18
2022-11-24T08:55:22.644Z,3.90
2022-11-24T08:57:49.122Z,4.43
2022-11-24T09:00:22.233Z,3.83
2022-11-24T09:02:59.041Z,4.15
2022-11-24T09:05:50.753Z,3.78
2022-11-24T09:08:13.265Z,4.97
2022-11-24T09:10:39.751Z,3.80
2022-11-24T09:13:06.143Z,4.55
2022-11-24T09:15:35.217Z,4.05
2022-11-24T09:18:01.733Z,3.38
2022-11-24T09:20:28.272Z,3.67
2022-11-24T09:22:56.329Z,4.07
2022-11-24T09:25:23.534Z,3.70
2022-11-24T09:27:51.261Z,3.47
2022-11-24T09:30:18.032Z,3.58
2022-11-24T09:32:44.512Z,3.42
2022-11-24T09:35:10.950Z,3.72
2022-11-24T09:37:37.403Z,2.70
2022-11-24T09:40:04.238Z,4.43
2022-11-24T09:42:39.750Z,3.00
2022-11-24T09:45:42.003Z,3.92
2022-11-24T09:48:26.583Z,3.10
2022-11-24T09:50:53.609Z,2.70
2022-11-24T09:53:50.858Z,3.05
2022-11-24T09:56:26.267Z,3.22
2022-11-24T09:59:17.004Z,3.42
2022-11-24T10:01:46.753Z,2.40
2022-11-24T10:04:18.344Z,2.25
2022-11-24T10:07:10.952Z,2.67
2022-11-24T10:09:56.307Z,4.68
2022-11-24T10:13:05.250Z,3.03
2022-11-24T10:15:41.468Z,2.80
2022-11-24T10:18:16.482Z,2.70
2022-11-24T10:21:21.241Z,3.00
2022-11-24T10:24:16.481Z,2.95
2022-11-24T10:26:52.864Z,3.17
2022-11-24T10:29:40.827Z,2.85
2022-11-24T10:32:40.069Z,2.13
2022-11-24T10:35:17.797Z,2.17
2022-11-24T10:38:13.225Z,3.42
2022-11-24T10:41:03.951Z,2.45
2022-11-24T10:43:32.091Z,3.13
2022-11-24T10:46:39.319Z,2.75
2022-11-24T10:49:06.738Z,3.80
2022-11-24T10:51:41.196Z,2.55
2022-11-24T10:54:19.818Z,2.55
2022-11-24T10:56:49.470Z,4.65
2022-11-24T10:59:25.037Z,2.72
2022-11-24T11:01:52.515Z,2.63
2022-11-24T11:04:30.320Z,2.92
2022-11-24T11:07:18.436Z,2.75
2022-11-24T11:09:47.157Z,1.85
2022-11-24T11:12:43.792Z,2.17
2022-11-24T11:15:23.724Z,1.90
2022-11-24T11:17:52.361Z,2.40
2022-11-24T11:20:28.172Z,3.03
2022-11-24T11:22:59.459Z,2.20
2022-11-24T11:25:35.610Z,2.70
2022-11-24T11:28:23.309Z,3.00
2022-11-24T11:31:22.714Z,2.55
2022-11-24T11:34:18.177Z,2.40
2022-11-24T11:36:51.679Z,3.13
2022-11-24T11:39:26.811Z,2.30
2022-11-24T11:42:37.997Z,2.80
2022-11-24T11:45:06.449Z,3.33
2022-11-24T11:47:43.239Z,2.20
2022-11-24T11:50:14.939Z,2.40
2022-11-24T11:52:54.089Z,2.97
2022-11-24T11:55:40.106Z,2.45
2022-11-24T11:58:37.391Z,2.97
2022-11-24T12:01:42.011Z,2.90
2022-11-24T12:04:17.752Z,2.95
2022-11-24T12:07:12.064Z,2.60
2022-11-24T12:09:47.568Z,2.50
2022-11-24T12:12:39.278Z,1.98
2022-11-24T12:15:12.432Z,2.47
2022-11-24T12:18:21.476Z,2.33
2022-11-24T12:20:58.271Z,2.47
2022-11-24T12:23:54.175Z,2.47
2022-11-24T12:26:46.447Z,2.47
2022-11-24T12:29:34.858Z,2.85
2022-11-24T12:32:17.275Z,2.50
2022-11-24T12:35:03.039Z,2.15
2022-11-24T12:38:06.858Z,2.88
2022-11-24T12:41:18.317Z,2.15
2022-11-24T12:43:52.274Z,2.25
2022-11-24T12:46:27.903Z,2.28
2022-11-24T12:49:32.266Z,2.40
2022-11-24T12:52:16.516Z,2.35
2022-11-24T12:54:42.999Z,2.58
2022-11-24T12:57:26.194Z,2.50
2022-11-24T13:00:02.142Z,2.72
2022-11-24T13:02:41.046Z,2.28
2022-11-24T13:05:20.261Z,3.92
2022-11-24T13:07:57.735Z,2.40
2022-11-24T13:10:54.344Z,2.50
2022-11-24T13:13:15.459Z,3.00
2022-11-24T13:16:28.508Z,2.70
2022-11-24T13:18:47.783Z,2.45
2022-11-24T13:21:42.729Z,2.50
2022-11-24T13:24:19.227Z,3.22
2022-11-24T13:27:16.054Z,3.08
2022-11-24T13:29:45.004Z,3.90
2022-11-24T13:32:11.778Z,2.85
2022-11-24T13:34:42.663Z,3.22
2022-11-24T13:37:31.732Z,2.70
2022-11-24T13:40:22.380Z,2.80
2022-11-24T13:42:55.187Z,2.80
2022-11-24T13:45:41.536Z,2.83
2022-11-24T13:48:20.783Z,2.33
2022-11-24T13:50:51.378Z,2.80
2022-11-24T13:53:27.197Z,3.17
2022-11-24T13:56:00.006Z,3.58
2022-11-24T13:58:46.709Z,4.32
2022-11-24T14:01:20.475Z,3.00
2022-11-24T14:07:08.401Z,2.25
2022-11-24T14:09:46.748Z,2.03
2022-11-24T14:12:21.958Z,2.85
2022-11-24T14:14:50.541Z,2.30
2022-11-24T14:17:25.652Z,2.78
2022-11-24T14:19:54.464Z,2.35
2022-11-24T14:22:21.016Z,2.38
2022-11-24T14:25:20.010Z,2.15
2022-11-24T14:27:46.820Z,2.38
2022-11-24T14:30:13.784Z,2.20
2022-11-24T14:32:40.541Z,3.08
2022-11-24T14:35:25.482Z,2.42
2022-11-24T14:37:52.207Z,2.90
2022-11-24T14:40:50.346Z,2.67
2022-11-24T14:43:31.406Z,3.05
2022-11-24T14:46:00.824Z,2.65
2022-11-24T14:48:30.724Z,2.08
2022-11-24T14:51:21.776Z,2.50
2022-11-24T14:53:52.688Z,2.92
2022-11-24T14:56:23.919Z,2.58
2022-11-24T14:58:50.878Z,2.78
2022-11-24T15:01:26.662Z,2.47
2022-11-24T15:07:24.428Z,2.80
2022-11-24T15:10:00.606Z,3.08
2022-11-24T15:12:30.511Z,2.50
2022-11-24T15:15:01.428Z,2.70
2022-11-24T15:17:29.841Z,2.60
2022-11-24T15:20:17.099Z,3.65
2022-11-24T15:22:44.708Z,2.90
2022-11-24T15:25:34.015Z,3.20
2022-11-24T15:28:01.003Z,2.42
2022-11-24T15:30:27.864Z,3.08
2022-11-24T15:32:56.662Z,2.70
2022-11-24T15:35:25.623Z,3.35
2022-11-24T15:37:52.345Z,2.83
2022-11-24T15:40:19.211Z,3.33
2022-11-24T15:42:54.196Z,3.70
2022-11-24T15:45:22.421Z,3.53
2022-11-24T15:47:48.939Z,4.28
2022-11-24T15:50:16.193Z,4.18
2022-11-24T15:52:44.151Z,5.20
2022-11-24T15:55:22.265Z,5.30
2022-11-24T15:57:49.538Z,4.85
2022-11-24T16:00:22.132Z,5.07
2022-11-24T16:02:49.238Z,5.25
2022-11-24T16:05:17.684Z,5.30
2022-11-24T16:07:44.637Z,3.90
2022-11-24T16:10:28.202Z,4.13
2022-11-24T16:12:55.087Z,4.00
2022-11-24T16:15:21.878Z,3.53
2022-11-24T16:17:48.498Z,4.85
2022-11-24T16:20:15.980Z,3.90
2022-11-24T16:22:43.125Z,4.65
2022-11-24T16:25:11.201Z,3.70
2022-11-24T16:27:38.214Z,3.40
2022-11-24T16:30:06.899Z,3.65
2022-11-24T16:32:33.597Z,3.60
2022-11-24T16:35:00.840Z,3.75
2022-11-24T16:37:27.330Z,3.47
2022-11-24T16:39:53.836Z,3.80
2022-11-24T16:42:20.293Z,3.60
2022-11-24T16:44:46.765Z,4.03
2022-11-24T16:47:13.264Z,3.20
2022-11-24T16:49:40.051Z,4.03
2022-11-24T16:52:08.452Z,3.45
2022-11-24T16:54:35.108Z,3.63
2022-11-24T16:57:01.793Z,3.35
2022-11-24T16:59:28.307Z,3.95
2022-11-24T17:01:54.890Z,3.55
2022-11-24T17:04:21.497Z,3.50
2022-11-24T17:06:48.301Z,4.00
2022-11-24T17:09:14.863Z,4.32
2022-11-24T17:11:41.549Z,4.60
2022-11-24T17:14:10.119Z,3.92
2022-11-24T17:16:37.261Z,3.28
2022-11-24T17:19:05.371Z,4.05
2022-11-24T17:21:32.866Z,4.15
2022-11-24T17:24:01.638Z,4.10
2022-11-24T17:26:28.432Z,4.50
2022-11-24T17:28:56.034Z,3.83
2022-11-24T17:31:31.971Z,4.30
2022-11-24T17:34:00.366Z,4.05
2022-11-24T17:36:28.242Z,3.35
2022-11-24T17:38:55.272Z,3.97
2022-11-24T17:41:23.194Z,4.13
2022-11-24T17:43:53.778Z,4.45
2022-11-24T17:48:47.187Z,5.75
2022-11-24T17:51:16.085Z,5.18
2022-11-24T17:53:45.320Z,4.80
2022-11-24T17:56:14.782Z,4.13
2022-11-24T17:58:43.257Z,5.03
2022-11-24T18:01:12.109Z,4.20
2022-11-24T18:03:39.795Z,3.83
2022-11-24T18:06:07.872Z,4.63
2022-11-24T18:08:38.413Z,5.70
2022-11-24T18:13:54.920Z,4.10
2022-11-24T18:16:18.872Z,4.90
2022-11-24T18:18:50.107Z,4.45
2022-11-24T18:21:18.116Z,3.88
2022-11-24T18:23:44.918Z,3.88
2022-11-24T18:26:16.516Z,3.55
2022-11-24T18:28:46.053Z,3.58
2022-11-24T18:31:15.409Z,3.88
2022-11-24T18:33:43.471Z,4.30
2022-11-24T18:36:13.339Z,4.47
2022-11-24T18:38:39.820Z,4.47
2022-11-24T18:41:07.983Z,4.90
2022-11-24T18:43:36.553Z,5.93
2022-11-24T18:46:08.512Z,5.70
2022-11-24T18:48:36.136Z,5.93
2022-11-24T18:51:03.163Z,5.82
2022-11-24T18:53:30.287Z,5.53
2022-11-24T18:56:07.337Z,5.10
2022-11-24T18:58:35.517Z,4.63
2022-11-24T19:01:07.059Z,4.80
2022-11-24T19:03:36.405Z,4.93
2022-11-24T19:06:04.466Z,5.13
2022-11-24T19:08:31.214Z,5.53
2022-11-24T19:10:57.905Z,4.65
2022-11-24T19:13:24.398Z,4.43
2022-11-24T19:15:51.889Z,5.43
2022-11-24T19:18:21.732Z,5.15
2022-11-24T19:20:48.220Z,5.07
2022-11-24T19:23:14.753Z,5.00
2022-11-24T19:25:41.230Z,4.88
2022-11-24T19:28:12.398Z,6.38
2022-11-24T19:30:40.409Z,5.65
2022-11-24T19:33:08.770Z,5.57
2022-11-24T19:35:35.320Z,5.03
2022-11-24T19:38:02.418Z,4.50
2022-11-24T19:40:29.004Z,5.45
2022-11-24T19:42:55.927Z,5.18
2022-11-24T19:45:22.599Z,5.47
2022-11-24T19:47:49.267Z,4.57
2022-11-24T19:50:16.026Z,5.07
2022-11-24T19:52:51.903Z,4.75
2022-11-24T19:55:18.314Z,4.07
2022-11-24T19:57:45.010Z,4.05
2022-11-24T20:00:12.342Z,4.65
2022-11-24T20:02:38.807Z,4.65
2022-11-24T20:05:05.653Z,4.32
2022-11-24T20:07:32.386Z,5.03
2022-11-24T20:10:01.866Z,5.38
2022-11-24T20:12:33.017Z,5.15
2022-11-24T20:14:59.554Z,4.40
2022-11-24T20:17:27.965Z,5.38
2022-11-24T20:19:55.554Z,4.90
2022-11-24T20:22:22.057Z,5.20
2022-11-24T20:24:48.463Z,4.22
2022-11-24T20:27:14.893Z,4.13
2022-11-24T20:29:46.576Z,4.32
2022-11-24T20:32:19.397Z,4.88
2022-11-24T20:34:47.067Z,4.47
2022-11-24T20:37:14.033Z,4.78
2022-11-24T20:39:40.445Z,4.57
2022-11-24T20:42:07.280Z,3.85
2022-11-24T20:44:36.862Z,4.38
2022-11-24T20:47:05.881Z,3.92
2022-11-24T20:49:32.815Z,4.57
2022-11-24T20:51:59.253Z,4.30
2022-11-24T20:54:26.296Z,3.97
2022-11-24T20:56:52.968Z,4.00
2022-11-24T20:59:22.511Z,4.38
2022-11-24T21:01:50.407Z,4.68
2022-11-24T21:04:22.726Z,4.43
2022-11-24T21:06:49.895Z,4.35
2022-11-24T21:09:16.628Z,4.40
2022-11-24T21:11:43.987Z,4.53
2022-11-24T21:14:10.866Z,3.78
2022-11-24T21:16:39.814Z,3.88
2022-11-24T21:19:18.123Z,4.20
2022-11-24T21:21:45.224Z,4.07
2022-11-24T21:24:14.198Z,3.83
2022-11-24T21:26:42.109Z,4.97
2022-11-24T21:29:11.360Z,4.47
2022-11-24T21:31:38.858Z,4.32
2022-11-24T21:34:06.305Z,4.00
2022-11-24T21:36:34.685Z,4.75
2022-11-24T21:39:02.575Z,4.45
2022-11-24T21:41:33.051Z,4.25
2022-11-24T21:43:59.632Z,4.38
2022-11-24T21:46:26.070Z,4.85
2022-11-24T21:48:53.903Z,3.83
2022-11-24T21:51:21.378Z,4.00
2022-11-24T21:53:48.069Z,4.43
2022-11-24T21:56:16.899Z,4.35
2022-11-24T21:58:45.776Z,4.05
2022-11-24T22:01:12.435Z,3.90
2022-11-24T22:03:39.232Z,4.15
2022-11-24T22:06:06.629Z,3.60
2022-11-24T22:08:33.471Z,3.75
2022-11-24T22:11:06.203Z,4.47
2022-11-24T22:13:33.118Z,3.60
2022-11-24T22:16:05.165Z,4.30
2022-11-24T22:18:33.622Z,3.90
2022-11-24T22:21:02.646Z,3.63
2022-11-24T22:23:30.678Z,4.30
2022-11-24T22:26:02.926Z,3.85
2022-11-24T22:28:34.100Z,4.05
2022-11-24T22:31:12.536Z,3.72
2022-11-24T22:33:39.561Z,3.95
2022-11-24T22:36:06.662Z,4.18
2022-11-24T22:38:34.326Z,4.22
2022-11-24T22:41:11.890Z,3.78
2022-11-24T22:43:39.739Z,3.95
2022-11-24T22:46:12.009Z,3.38
2022-11-24T22:48:39.812Z,3.25
2022-11-24T22:51:09.169Z,3.80
2022-11-24T22:53:35.591Z,3.42
2022-11-24T22:56:03.767Z,3.35
2022-11-24T22:58:31.954Z,3.22
2022-11-24T23:01:10.680Z,3.20
2022-11-24T23:03:38.177Z,3.53
2022-11-24T23:06:10.648Z,2.97
2022-11-24T23:08:37.514Z,3.35
2022-11-24T23:11:06.665Z,3.63
2022-11-24T23:13:34.077Z,2.97
2022-11-24T23:16:12.486Z,3.20
2022-11-24T23:18:39.692Z,2.83
2022-11-24T23:21:17.871Z,3.72
2022-11-24T23:23:45.754Z,3.35
2022-11-24T23:26:14.416Z,2.72
2022-11-24T23:28:41.417Z,3.10
2022-11-24T23:31:13.037Z,3.17
2022-11-24T23:33:40.263Z,3.45
2022-11-24T23:36:09.830Z,3.40
2022-11-24T23:38:36.752Z,2.85
2022-11-24T23:41:06.172Z,3.78
2022-11-24T23:43:34.431Z,4.18
2022-11-24T23:46:10.009Z,3.17
2022-11-24T23:48:37.589Z,3.25
2022-11-24T23:51:11.365Z,3.50
2022-11-24T23:53:38.253Z,3.58
2022-11-24T23:56:05.804Z,3.40
2022-11-24T23:58:33.512Z,3.28
